Heerjansdam, Netherlands
Current Conditions -  °F | °C
As of 1:25 AM on Tuesday 25 Nov 2014 (Local Time) from EHRD Reporting Station
Haze Haze  
Wind Chill: 34°   Ceiling: Unl
Heat Index: 34°   Visibility: 2.4mi
Dew Point: 34°   Wind: 2mph
Humidity: 100%   Direction: NA
Pressure: 30.33"   Gusts: NA
Location:  51.84°N, 4.56°E
Report Text: EHRD 250025Z AUTO VRB02KT 3900 BR SCT034 01/01 Q1027 TEMPO 1200MIFG
Loading
Personal Weather Stations






























Interactive Weather Map New forecast layout! Learn more

10-Day Weather Forecast

Advertisements
Track Severe Weather on mobile